sensor_id;sensor_type;location;lat;lon;timestamp;P1;durP1;ratioP1;P2;durP2;ratioP2
15230;SDS011;32569;51.762;8.564;2022-10-17T00:00:36;10.37;;;9.37;;
15230;SDS011;32569;51.762;8.564;2022-10-17T00:03:03;10.03;;;8.93;;
15230;SDS011;32569;51.762;8.564;2022-10-17T00:05:31;12.73;;;9.20;;
15230;SDS011;32569;51.762;8.564;2022-10-17T00:07:58;10.53;;;9.53;;
15230;SDS011;32569;51.762;8.564;2022-10-17T00:10:25;11.33;;;8.97;;
15230;SDS011;32569;51.762;8.564;2022-10-17T00:12:51;10.87;;;9.47;;
15230;SDS011;32569;51.762;8.564;2022-10-17T00:15:19;10.83;;;9.10;;
15230;SDS011;32569;51.762;8.564;2022-10-17T00:17:46;10.87;;;9.77;;
15230;SDS011;32569;51.762;8.564;2022-10-17T00:20:13;10.63;;;9.40;;
15230;SDS011;32569;51.762;8.564;2022-10-17T00:22:42;11.83;;;9.93;;
15230;SDS011;32569;51.762;8.564;2022-10-17T00:25:09;10.53;;;9.27;;
15230;SDS011;32569;51.762;8.564;2022-10-17T00:27:36;11.03;;;9.97;;
15230;SDS011;32569;51.762;8.564;2022-10-17T00:30:04;11.77;;;10.13;;
15230;SDS011;32569;51.762;8.564;2022-10-17T00:32:33;10.97;;;9.53;;
15230;SDS011;32569;51.762;8.564;2022-10-17T00:34:59;11.83;;;10.50;;
15230;SDS011;32569;51.762;8.564;2022-10-17T00:37:26;12.03;;;10.00;;
15230;SDS011;32569;51.762;8.564;2022-10-17T00:39:56;11.70;;;10.00;;
15230;SDS011;32569;51.762;8.564;2022-10-17T00:42:23;11.17;;;10.07;;
15230;SDS011;32569;51.762;8.564;2022-10-17T00:44:56;11.63;;;10.43;;
15230;SDS011;32569;51.762;8.564;2022-10-17T00:47:39;11.83;;;10.37;;
15230;SDS011;32569;51.762;8.564;2022-10-17T00:50:07;13.07;;;9.97;;
15230;SDS011;32569;51.762;8.564;2022-10-17T00:52:35;10.97;;;9.97;;
15230;SDS011;32569;51.762;8.564;2022-10-17T00:55:05;11.27;;;10.20;;
15230;SDS011;32569;51.762;8.564;2022-10-17T00:57:35;12.07;;;10.57;;
15230;SDS011;32569;51.762;8.564;2022-10-17T01:00:03;11.27;;;10.07;;
15230;SDS011;32569;51.762;8.564;2022-10-17T01:02:32;12.07;;;10.83;;
15230;SDS011;32569;51.762;8.564;2022-10-17T01:04:59;11.20;;;10.20;;
15230;SDS011;32569;51.762;8.564;2022-10-17T01:07:26;11.47;;;10.37;;
15230;SDS011;32569;51.762;8.564;2022-10-17T01:09:54;11.47;;;10.37;;
15230;SDS011;32569;51.762;8.564;2022-10-17T01:12:23;11.90;;;10.80;;
15230;SDS011;32569;51.762;8.564;2022-10-17T01:14:56;12.00;;;10.80;;
15230;SDS011;32569;51.762;8.564;2022-10-17T01:17:32;11.37;;;10.20;;
15230;SDS011;32569;51.762;8.564;2022-10-17T01:20:22;11.47;;;10.37;;
15230;SDS011;32569;51.762;8.564;2022-10-17T01:23:12;11.80;;;10.60;;
15230;SDS011;32569;51.762;8.564;2022-10-17T01:25:52;11.77;;;10.57;;
15230;SDS011;32569;51.762;8.564;2022-10-17T01:28:54;11.53;;;10.40;;
15230;SDS011;32569;51.762;8.564;2022-10-17T01:31:49;11.03;;;10.03;;
15230;SDS011;32569;51.762;8.564;2022-10-17T01:34:20;10.97;;;9.23;;
15230;SDS011;32569;51.762;8.564;2022-10-17T01:36:55;11.73;;;10.53;;
15230;SDS011;32569;51.762;8.564;2022-10-17T01:39:28;10.67;;;9.57;;
15230;SDS011;32569;51.762;8.564;2022-10-17T01:42:06;10.70;;;9.67;;
15230;SDS011;32569;51.762;8.564;2022-10-17T01:44:40;12.07;;;9.50;;
15230;SDS011;32569;51.762;8.564;2022-10-17T01:47:14;13.13;;;10.10;;
15230;SDS011;32569;51.762;8.564;2022-10-17T01:49:44;11.00;;;9.90;;
15230;SDS011;32569;51.762;8.564;2022-10-17T01:52:16;10.73;;;9.63;;
15230;SDS011;32569;51.762;8.564;2022-10-17T01:54:47;11.17;;;9.27;;
15230;SDS011;32569;51.762;8.564;2022-10-17T01:57:19;11.73;;;10.53;;
15230;SDS011;32569;51.762;8.564;2022-10-17T01:59:54;10.37;;;9.33;;
15230;SDS011;32569;51.762;8.564;2022-10-17T02:02:23;11.73;;;10.00;;
15230;SDS011;32569;51.762;8.564;2022-10-17T02:04:51;11.17;;;10.00;;
15230;SDS011;32569;51.762;8.564;2022-10-17T02:07:20;9.77;;;8.87;;
15230;SDS011;32569;51.762;8.564;2022-10-17T02:09:47;10.37;;;9.33;;
15230;SDS011;32569;51.762;8.564;2022-10-17T02:12:21;11.50;;;10.47;;
15230;SDS011;32569;51.762;8.564;2022-10-17T02:15:07;11.17;;;9.87;;
15230;SDS011;32569;51.762;8.564;2022-10-17T02:17:46;14.27;;;10.17;;
15230;SDS011;32569;51.762;8.564;2022-10-17T02:20:23;10.67;;;9.57;;
15230;SDS011;32569;51.762;8.564;2022-10-17T02:22:53;9.73;;;8.83;;
15230;SDS011;32569;51.762;8.564;2022-10-17T02:25:27;12.10;;;10.23;;
15230;SDS011;32569;51.762;8.564;2022-10-17T02:28:04;12.30;;;10.40;;
15230;SDS011;32569;51.762;8.564;2022-10-17T02:30:39;11.27;;;10.13;;
15230;SDS011;32569;51.762;8.564;2022-10-17T02:33:10;14.10;;;11.00;;
15230;SDS011;32569;51.762;8.564;2022-10-17T02:35:40;12.50;;;11.20;;
15230;SDS011;32569;51.762;8.564;2022-10-17T02:38:10;11.23;;;10.13;;
15230;SDS011;32569;51.762;8.564;2022-10-17T02:40:38;12.33;;;11.03;;
15230;SDS011;32569;51.762;8.564;2022-10-17T02:43:07;12.27;;;10.87;;
15230;SDS011;32569;51.762;8.564;2022-10-17T02:45:33;13.93;;;11.47;;
15230;SDS011;32569;51.762;8.564;2022-10-17T02:48:04;11.90;;;10.67;;
15230;SDS011;32569;51.762;8.564;2022-10-17T02:50:37;13.90;;;12.40;;
15230;SDS011;32569;51.762;8.564;2022-10-17T02:53:14;12.70;;;11.40;;
15230;SDS011;32569;51.762;8.564;2022-10-17T02:55:47;12.13;;;10.80;;
15230;SDS011;32569;51.762;8.564;2022-10-17T02:58:19;11.77;;;10.53;;
15230;SDS011;32569;51.762;8.564;2022-10-17T03:00:51;12.03;;;10.50;;
15230;SDS011;32569;51.762;8.564;2022-10-17T03:03:19;11.70;;;10.50;;
15230;SDS011;32569;51.762;8.564;2022-10-17T03:05:49;11.60;;;10.40;;
15230;SDS011;32569;51.762;8.564;2022-10-17T03:08:16;11.17;;;9.97;;
15230;SDS011;32569;51.762;8.564;2022-10-17T03:10:43;11.60;;;10.50;;
15230;SDS011;32569;51.762;8.564;2022-10-17T03:13:09;15.40;;;11.80;;
15230;SDS011;32569;51.762;8.564;2022-10-17T03:15:36;12.70;;;11.40;;
15230;SDS011;32569;51.762;8.564;2022-10-17T03:18:03;13.03;;;11.53;;
15230;SDS011;32569;51.762;8.564;2022-10-17T03:20:30;13.17;;;10.63;;
15230;SDS011;32569;51.762;8.564;2022-10-17T03:22:58;13.07;;;10.57;;
15230;SDS011;32569;51.762;8.564;2022-10-17T03:25:25;12.53;;;10.37;;
15230;SDS011;32569;51.762;8.564;2022-10-17T03:27:52;14.03;;;10.90;;
15230;SDS011;32569;51.762;8.564;2022-10-17T03:30:19;11.47;;;10.27;;
15230;SDS011;32569;51.762;8.564;2022-10-17T03:32:46;15.13;;;10.07;;
15230;SDS011;32569;51.762;8.564;2022-10-17T03:35:12;10.07;;;9.07;;
15230;SDS011;32569;51.762;8.564;2022-10-17T03:37:39;11.67;;;10.57;;
15230;SDS011;32569;51.762;8.564;2022-10-17T03:40:07;11.13;;;10.13;;
15230;SDS011;32569;51.762;8.564;2022-10-17T03:42:35;11.87;;;9.53;;
15230;SDS011;32569;51.762;8.564;2022-10-17T03:45:01;12.30;;;10.07;;
15230;SDS011;32569;51.762;8.564;2022-10-17T03:47:28;14.87;;;10.17;;
15230;SDS011;32569;51.762;8.564;2022-10-17T03:49:55;12.40;;;11.07;;
15230;SDS011;32569;51.762;8.564;2022-10-17T03:52:22;13.60;;;10.07;;
15230;SDS011;32569;51.762;8.564;2022-10-17T03:54:49;14.53;;;10.33;;
15230;SDS011;32569;51.762;8.564;2022-10-17T03:57:17;13.10;;;11.37;;
15230;SDS011;32569;51.762;8.564;2022-10-17T03:59:44;11.63;;;10.43;;
15230;SDS011;32569;51.762;8.564;2022-10-17T04:02:11;12.97;;;11.60;;
15230;SDS011;32569;51.762;8.564;2022-10-17T04:04:38;13.23;;;11.93;;
15230;SDS011;32569;51.762;8.564;2022-10-17T04:07:04;12.20;;;10.93;;
15230;SDS011;32569;51.762;8.564;2022-10-17T04:09:31;11.97;;;10.87;;
15230;SDS011;32569;51.762;8.564;2022-10-17T04:11:58;12.63;;;10.87;;
15230;SDS011;32569;51.762;8.564;2022-10-17T04:14:26;12.77;;;10.80;;
15230;SDS011;32569;51.762;8.564;2022-10-17T04:16:53;12.70;;;11.40;;
15230;SDS011;32569;51.762;8.564;2022-10-17T04:19:19;12.77;;;11.07;;
15230;SDS011;32569;51.762;8.564;2022-10-17T04:21:46;12.53;;;11.23;;
15230;SDS011;32569;51.762;8.564;2022-10-17T04:24:13;13.97;;;10.93;;
15230;SDS011;32569;51.762;8.564;2022-10-17T04:26:40;12.33;;;11.07;;
15230;SDS011;32569;51.762;8.564;2022-10-17T04:29:06;12.23;;;11.03;;
15230;SDS011;32569;51.762;8.564;2022-10-17T04:31:34;11.53;;;10.33;;
15230;SDS011;32569;51.762;8.564;2022-10-17T04:34:01;12.63;;;10.93;;
15230;SDS011;32569;51.762;8.564;2022-10-17T04:36:28;12.97;;;11.43;;
15230;SDS011;32569;51.762;8.564;2022-10-17T04:38:55;13.50;;;12.10;;
15230;SDS011;32569;51.762;8.564;2022-10-17T04:41:21;14.43;;;11.70;;
15230;SDS011;32569;51.762;8.564;2022-10-17T04:43:49;13.27;;;11.87;;
15230;SDS011;32569;51.762;8.564;2022-10-17T04:46:16;12.73;;;11.00;;
15230;SDS011;32569;51.762;8.564;2022-10-17T04:48:44;12.53;;;11.23;;
15230;SDS011;32569;51.762;8.564;2022-10-17T04:51:11;13.83;;;10.93;;
15230;SDS011;32569;51.762;8.564;2022-10-17T04:53:39;12.50;;;11.20;;
15230;SDS011;32569;51.762;8.564;2022-10-17T04:56:07;13.37;;;10.57;;
15230;SDS011;32569;51.762;8.564;2022-10-17T04:58:36;12.43;;;11.10;;
15230;SDS011;32569;51.762;8.564;2022-10-17T05:01:05;11.93;;;10.73;;
15230;SDS011;32569;51.762;8.564;2022-10-17T05:03:33;10.80;;;9.70;;
15230;SDS011;32569;51.762;8.564;2022-10-17T05:06:06;11.93;;;10.73;;
15230;SDS011;32569;51.762;8.564;2022-10-17T05:08:33;12.33;;;11.10;;
15230;SDS011;32569;51.762;8.564;2022-10-17T05:11:00;13.20;;;11.20;;
15230;SDS011;32569;51.762;8.564;2022-10-17T05:13:27;12.00;;;10.77;;
15230;SDS011;32569;51.762;8.564;2022-10-17T05:15:57;12.50;;;10.40;;
15230;SDS011;32569;51.762;8.564;2022-10-17T05:18:24;12.27;;;10.70;;
15230;SDS011;32569;51.762;8.564;2022-10-17T05:20:51;13.87;;;10.73;;
15230;SDS011;32569;51.762;8.564;2022-10-17T05:23:20;11.60;;;10.40;;
15230;SDS011;32569;51.762;8.564;2022-10-17T05:25:46;12.03;;;9.77;;
15230;SDS011;32569;51.762;8.564;2022-10-17T05:28:18;12.23;;;10.43;;
15230;SDS011;32569;51.762;8.564;2022-10-17T05:30:45;11.60;;;9.97;;
15230;SDS011;32569;51.762;8.564;2022-10-17T05:33:12;12.53;;;10.57;;
15230;SDS011;32569;51.762;8.564;2022-10-17T05:35:38;11.10;;;10.07;;
15230;SDS011;32569;51.762;8.564;2022-10-17T05:38:05;10.80;;;9.53;;
15230;SDS011;32569;51.762;8.564;2022-10-17T05:40:33;12.00;;;10.07;;
15230;SDS011;32569;51.762;8.564;2022-10-17T05:43:00;10.70;;;9.70;;
15230;SDS011;32569;51.762;8.564;2022-10-17T05:45:26;10.30;;;9.30;;
15230;SDS011;32569;51.762;8.564;2022-10-17T05:47:53;12.87;;;9.73;;
15230;SDS011;32569;51.762;8.564;2022-10-17T05:50:20;10.57;;;9.20;;
15230;SDS011;32569;51.762;8.564;2022-10-17T05:52:51;14.07;;;9.87;;
15230;SDS011;32569;51.762;8.564;2022-10-17T05:55:18;11.67;;;9.73;;
15230;SDS011;32569;51.762;8.564;2022-10-17T05:57:46;12.47;;;9.40;;
15230;SDS011;32569;51.762;8.564;2022-10-17T06:00:13;11.77;;;9.47;;
15230;SDS011;32569;51.762;8.564;2022-10-17T06:02:40;11.30;;;9.17;;
15230;SDS011;32569;51.762;8.564;2022-10-17T06:05:07;10.80;;;9.37;;
15230;SDS011;32569;51.762;8.564;2022-10-17T06:07:34;9.87;;;8.97;;
15230;SDS011;32569;51.762;8.564;2022-10-17T06:10:01;10.43;;;9.13;;
15230;SDS011;32569;51.762;8.564;2022-10-17T06:12:29;10.17;;;9.17;;
15230;SDS011;32569;51.762;8.564;2022-10-17T06:14:57;11.10;;;9.67;;
15230;SDS011;32569;51.762;8.564;2022-10-17T06:17:24;11.57;;;8.97;;
15230;SDS011;32569;51.762;8.564;2022-10-17T06:19:52;9.87;;;8.70;;
15230;SDS011;32569;51.762;8.564;2022-10-17T06:22:18;9.50;;;8.17;;
15230;SDS011;32569;51.762;8.564;2022-10-17T06:24:45;9.33;;;8.13;;
15230;SDS011;32569;51.762;8.564;2022-10-17T06:27:12;10.17;;;8.30;;
15230;SDS011;32569;51.762;8.564;2022-10-17T06:29:39;8.83;;;8.03;;
15230;SDS011;32569;51.762;8.564;2022-10-17T06:32:07;8.97;;;8.07;;
15230;SDS011;32569;51.762;8.564;2022-10-17T06:34:34;8.67;;;7.80;;
15230;SDS011;32569;51.762;8.564;2022-10-17T06:37:01;9.43;;;8.53;;
15230;SDS011;32569;51.762;8.564;2022-10-17T06:39:28;8.77;;;7.83;;
15230;SDS011;32569;51.762;8.564;2022-10-17T06:41:57;8.50;;;7.70;;
15230;SDS011;32569;51.762;8.564;2022-10-17T06:44:24;8.90;;;8.10;;
15230;SDS011;32569;51.762;8.564;2022-10-17T06:46:54;9.43;;;8.43;;
15230;SDS011;32569;51.762;8.564;2022-10-17T06:49:22;8.03;;;7.20;;
15230;SDS011;32569;51.762;8.564;2022-10-17T06:51:49;8.50;;;7.27;;
15230;SDS011;32569;51.762;8.564;2022-10-17T06:54:16;10.23;;;8.50;;
15230;SDS011;32569;51.762;8.564;2022-10-17T06:56:42;10.97;;;8.17;;
15230;SDS011;32569;51.762;8.564;2022-10-17T06:59:09;11.60;;;7.80;;
15230;SDS011;32569;51.762;8.564;2022-10-17T07:01:36;9.27;;;7.40;;
15230;SDS011;32569;51.762;8.564;2022-10-17T07:04:03;8.83;;;7.90;;
15230;SDS011;32569;51.762;8.564;2022-10-17T07:06:31;8.27;;;7.47;;
15230;SDS011;32569;51.762;8.564;2022-10-17T07:08:58;10.00;;;7.97;;
15230;SDS011;32569;51.762;8.564;2022-10-17T07:11:26;7.53;;;6.83;;
15230;SDS011;32569;51.762;8.564;2022-10-17T07:13:53;8.40;;;7.63;;
15230;SDS011;32569;51.762;8.564;2022-10-17T07:16:20;7.83;;;7.03;;
15230;SDS011;32569;51.762;8.564;2022-10-17T07:18:47;8.60;;;7.07;;
15230;SDS011;32569;51.762;8.564;2022-10-17T07:21:15;8.97;;;7.60;;
15230;SDS011;32569;51.762;8.564;2022-10-17T07:23:43;9.40;;;8.10;;
15230;SDS011;32569;51.762;8.564;2022-10-17T07:26:10;8.40;;;7.60;;
15230;SDS011;32569;51.762;8.564;2022-10-17T07:28:39;8.60;;;7.73;;
15230;SDS011;32569;51.762;8.564;2022-10-17T07:31:08;8.93;;;8.03;;
15230;SDS011;32569;51.762;8.564;2022-10-17T07:33:36;8.00;;;7.20;;
15230;SDS011;32569;51.762;8.564;2022-10-17T07:36:03;9.63;;;7.97;;
15230;SDS011;32569;51.762;8.564;2022-10-17T07:38:30;9.23;;;7.60;;
15230;SDS011;32569;51.762;8.564;2022-10-17T07:40:59;8.63;;;7.83;;
15230;SDS011;32569;51.762;8.564;2022-10-17T07:43:27;7.93;;;7.10;;
15230;SDS011;32569;51.762;8.564;2022-10-17T07:45:55;8.47;;;6.90;;
15230;SDS011;32569;51.762;8.564;2022-10-17T07:48:22;7.10;;;6.40;;
15230;SDS011;32569;51.762;8.564;2022-10-17T07:50:50;7.20;;;6.40;;
15230;SDS011;32569;51.762;8.564;2022-10-17T07:53:16;7.83;;;7.03;;
15230;SDS011;32569;51.762;8.564;2022-10-17T07:55:44;7.63;;;6.50;;
15230;SDS011;32569;51.762;8.564;2022-10-17T07:58:13;7.43;;;6.00;;
15230;SDS011;32569;51.762;8.564;2022-10-17T08:00:41;7.00;;;5.80;;
15230;SDS011;32569;51.762;8.564;2022-10-17T08:03:08;6.50;;;5.90;;
15230;SDS011;32569;51.762;8.564;2022-10-17T08:05:36;6.00;;;5.40;;
15230;SDS011;32569;51.762;8.564;2022-10-17T08:08:03;7.43;;;5.33;;
15230;SDS011;32569;51.762;8.564;2022-10-17T08:10:30;6.27;;;5.67;;
15230;SDS011;32569;51.762;8.564;2022-10-17T08:12:56;6.27;;;5.67;;
15230;SDS011;32569;51.762;8.564;2022-10-17T08:15:25;8.67;;;5.67;;
15230;SDS011;32569;51.762;8.564;2022-10-17T08:17:52;5.97;;;5.07;;
15230;SDS011;32569;51.762;8.564;2022-10-17T08:20:19;15.63;;;5.50;;
15230;SDS011;32569;51.762;8.564;2022-10-17T08:22:49;5.53;;;4.80;;
15230;SDS011;32569;51.762;8.564;2022-10-17T08:25:17;7.77;;;5.00;;
15230;SDS011;32569;51.762;8.564;2022-10-17T08:27:44;6.03;;;4.70;;
15230;SDS011;32569;51.762;8.564;2022-10-17T08:30:11;6.13;;;4.50;;
15230;SDS011;32569;51.762;8.564;2022-10-17T08:32:39;6.70;;;4.77;;
15230;SDS011;32569;51.762;8.564;2022-10-17T08:35:06;5.00;;;4.60;;
15230;SDS011;32569;51.762;8.564;2022-10-17T08:37:33;5.20;;;4.70;;
15230;SDS011;32569;51.762;8.564;2022-10-17T08:40:00;5.37;;;4.87;;
15230;SDS011;32569;51.762;8.564;2022-10-17T08:42:33;4.67;;;4.10;;
15230;SDS011;32569;51.762;8.564;2022-10-17T08:45:22;4.73;;;4.33;;
15230;SDS011;32569;51.762;8.564;2022-10-17T08:47:57;5.77;;;4.27;;
15230;SDS011;32569;51.762;8.564;2022-10-17T08:50:28;5.23;;;4.73;;
15230;SDS011;32569;51.762;8.564;2022-10-17T08:53:01;5.80;;;4.37;;
15230;SDS011;32569;51.762;8.564;2022-10-17T08:55:32;5.10;;;4.40;;
15230;SDS011;32569;51.762;8.564;2022-10-17T08:58:01;5.93;;;5.27;;
15230;SDS011;32569;51.762;8.564;2022-10-17T09:00:28;5.23;;;4.23;;
15230;SDS011;32569;51.762;8.564;2022-10-17T09:03:01;6.13;;;4.70;;
15230;SDS011;32569;51.762;8.564;2022-10-17T09:05:39;8.73;;;4.47;;
15230;SDS011;32569;51.762;8.564;2022-10-17T09:08:18;5.93;;;4.43;;
15230;SDS011;32569;51.762;8.564;2022-10-17T09:10:55;4.33;;;3.97;;
15230;SDS011;32569;51.762;8.564;2022-10-17T09:13:26;4.83;;;3.90;;
15230;SDS011;32569;51.762;8.564;2022-10-17T09:16:20;4.70;;;4.20;;
15230;SDS011;32569;51.762;8.564;2022-10-17T09:19:00;5.27;;;4.43;;
15230;SDS011;32569;51.762;8.564;2022-10-17T09:21:38;11.37;;;4.43;;
15230;SDS011;32569;51.762;8.564;2022-10-17T09:24:11;7.03;;;4.00;;
15230;SDS011;32569;51.762;8.564;2022-10-17T09:26:41;5.07;;;4.23;;
15230;SDS011;32569;51.762;8.564;2022-10-17T09:29:15;4.47;;;3.80;;
15230;SDS011;32569;51.762;8.564;2022-10-17T09:31:48;5.43;;;4.20;;
15230;SDS011;32569;51.762;8.564;2022-10-17T09:34:21;5.57;;;3.93;;
15230;SDS011;32569;51.762;8.564;2022-10-17T09:36:49;4.77;;;3.70;;
15230;SDS011;32569;51.762;8.564;2022-10-17T09:39:18;6.13;;;4.00;;
15230;SDS011;32569;51.762;8.564;2022-10-17T09:41:48;8.77;;;3.60;;
15230;SDS011;32569;51.762;8.564;2022-10-17T09:44:18;4.00;;;3.63;;
15230;SDS011;32569;51.762;8.564;2022-10-17T09:46:51;6.47;;;3.93;;
15230;SDS011;32569;51.762;8.564;2022-10-17T09:49:32;4.67;;;4.20;;
15230;SDS011;32569;51.762;8.564;2022-10-17T09:52:00;4.47;;;4.03;;
15230;SDS011;32569;51.762;8.564;2022-10-17T09:54:31;6.53;;;3.77;;
15230;SDS011;32569;51.762;8.564;2022-10-17T09:57:05;4.10;;;3.80;;
15230;SDS011;32569;51.762;8.564;2022-10-17T09:59:34;7.10;;;3.60;;
15230;SDS011;32569;51.762;8.564;2022-10-17T10:04:53;7.60;;;3.80;;
15230;SDS011;32569;51.762;8.564;2022-10-17T10:07:25;4.87;;;3.80;;
15230;SDS011;32569;51.762;8.564;2022-10-17T10:09:53;5.33;;;3.53;;
15230;SDS011;32569;51.762;8.564;2022-10-17T10:12:22;5.23;;;3.70;;
15230;SDS011;32569;51.762;8.564;2022-10-17T10:14:49;3.93;;;3.50;;
15230;SDS011;32569;51.762;8.564;2022-10-17T10:17:28;4.70;;;3.53;;
15230;SDS011;32569;51.762;8.564;2022-10-17T10:20:24;5.00;;;3.10;;
15230;SDS011;32569;51.762;8.564;2022-10-17T10:23:06;4.27;;;3.33;;
15230;SDS011;32569;51.762;8.564;2022-10-17T10:25:37;5.93;;;3.50;;
15230;SDS011;32569;51.762;8.564;2022-10-17T10:28:14;5.67;;;3.60;;
15230;SDS011;32569;51.762;8.564;2022-10-17T10:30:44;5.23;;;3.80;;
15230;SDS011;32569;51.762;8.564;2022-10-17T10:33:13;3.67;;;3.37;;
15230;SDS011;32569;51.762;8.564;2022-10-17T10:35:41;3.10;;;2.80;;
15230;SDS011;32569;51.762;8.564;2022-10-17T10:38:16;6.63;;;3.70;;
15230;SDS011;32569;51.762;8.564;2022-10-17T10:40:44;3.90;;;3.50;;
15230;SDS011;32569;51.762;8.564;2022-10-17T10:43:19;4.77;;;3.67;;
15230;SDS011;32569;51.762;8.564;2022-10-17T10:45:48;3.70;;;3.40;;
15230;SDS011;32569;51.762;8.564;2022-10-17T10:48:18;3.87;;;3.40;;
15230;SDS011;32569;51.762;8.564;2022-10-17T10:50:49;5.93;;;3.37;;
15230;SDS011;32569;51.762;8.564;2022-10-17T10:53:25;4.30;;;3.20;;
15230;SDS011;32569;51.762;8.564;2022-10-17T10:55:59;4.77;;;3.20;;
15230;SDS011;32569;51.762;8.564;2022-10-17T10:58:31;4.97;;;3.23;;
15230;SDS011;32569;51.762;8.564;2022-10-17T11:01:05;4.37;;;2.90;;
15230;SDS011;32569;51.762;8.564;2022-10-17T11:03:38;5.57;;;3.60;;
15230;SDS011;32569;51.762;8.564;2022-10-17T11:06:11;5.40;;;3.77;;
15230;SDS011;32569;51.762;8.564;2022-10-17T11:08:44;5.03;;;3.07;;
15230;SDS011;32569;51.762;8.564;2022-10-17T11:11:16;5.37;;;3.30;;
15230;SDS011;32569;51.762;8.564;2022-10-17T11:13:51;5.27;;;3.17;;
15230;SDS011;32569;51.762;8.564;2022-10-17T11:16:26;4.27;;;3.53;;
15230;SDS011;32569;51.762;8.564;2022-10-17T11:18:58;6.27;;;3.90;;
15230;SDS011;32569;51.762;8.564;2022-10-17T11:21:36;4.73;;;3.57;;
15230;SDS011;32569;51.762;8.564;2022-10-17T11:24:11;4.50;;;3.20;;
15230;SDS011;32569;51.762;8.564;2022-10-17T11:26:45;3.87;;;3.43;;
15230;SDS011;32569;51.762;8.564;2022-10-17T11:29:19;5.23;;;3.90;;
15230;SDS011;32569;51.762;8.564;2022-10-17T11:31:48;5.93;;;4.10;;
15230;SDS011;32569;51.762;8.564;2022-10-17T11:34:19;7.00;;;3.40;;
15230;SDS011;32569;51.762;8.564;2022-10-17T11:36:49;5.07;;;3.80;;
15230;SDS011;32569;51.762;8.564;2022-10-17T11:39:22;5.13;;;3.30;;
15230;SDS011;32569;51.762;8.564;2022-10-17T11:41:56;4.20;;;3.50;;
15230;SDS011;32569;51.762;8.564;2022-10-17T11:44:29;6.37;;;3.50;;
15230;SDS011;32569;51.762;8.564;2022-10-17T11:47:00;5.50;;;3.80;;
15230;SDS011;32569;51.762;8.564;2022-10-17T11:49:33;6.00;;;3.20;;
15230;SDS011;32569;51.762;8.564;2022-10-17T11:52:07;5.10;;;3.20;;
15230;SDS011;32569;51.762;8.564;2022-10-17T11:54:44;3.97;;;3.60;;
15230;SDS011;32569;51.762;8.564;2022-10-17T11:57:31;4.60;;;3.77;;
15230;SDS011;32569;51.762;8.564;2022-10-17T12:03:06;3.50;;;3.20;;
15230;SDS011;32569;51.762;8.564;2022-10-17T12:05:43;7.03;;;4.00;;
15230;SDS011;32569;51.762;8.564;2022-10-17T12:08:19;5.03;;;3.87;;
15230;SDS011;32569;51.762;8.564;2022-10-17T12:10:53;4.80;;;3.63;;
15230;SDS011;32569;51.762;8.564;2022-10-17T12:22:04;6.40;;;3.93;;
15230;SDS011;32569;51.762;8.564;2022-10-17T12:24:44;3.93;;;3.07;;
15230;SDS011;32569;51.762;8.564;2022-10-17T12:27:20;5.93;;;3.67;;
15230;SDS011;32569;51.762;8.564;2022-10-17T12:29:59;4.00;;;3.30;;
15230;SDS011;32569;51.762;8.564;2022-10-17T12:32:27;3.80;;;3.50;;
15230;SDS011;32569;51.762;8.564;2022-10-17T12:34:54;5.13;;;3.63;;
15230;SDS011;32569;51.762;8.564;2022-10-17T12:49:24;3.53;;;3.23;;
15230;SDS011;32569;51.762;8.564;2022-10-17T12:55:17;5.20;;;3.40;;
15230;SDS011;32569;51.762;8.564;2022-10-17T12:57:52;4.83;;;3.37;;
15230;SDS011;32569;51.762;8.564;2022-10-17T13:00:24;6.27;;;3.73;;
15230;SDS011;32569;51.762;8.564;2022-10-17T13:03:01;5.87;;;3.27;;
15230;SDS011;32569;51.762;8.564;2022-10-17T13:05:33;5.30;;;3.60;;
15230;SDS011;32569;51.762;8.564;2022-10-17T13:08:02;5.33;;;3.50;;
15230;SDS011;32569;51.762;8.564;2022-10-17T13:10:33;5.33;;;3.67;;
15230;SDS011;32569;51.762;8.564;2022-10-17T13:13:05;6.57;;;3.97;;
15230;SDS011;32569;51.762;8.564;2022-10-17T13:15:36;4.90;;;3.80;;
15230;SDS011;32569;51.762;8.564;2022-10-17T13:18:03;7.30;;;4.10;;
15230;SDS011;32569;51.762;8.564;2022-10-17T13:20:30;6.23;;;3.97;;
15230;SDS011;32569;51.762;8.564;2022-10-17T13:22:57;5.27;;;3.77;;
15230;SDS011;32569;51.762;8.564;2022-10-17T13:25:25;6.57;;;4.00;;
15230;SDS011;32569;51.762;8.564;2022-10-17T13:28:02;6.00;;;3.83;;
15230;SDS011;32569;51.762;8.564;2022-10-17T13:30:33;5.80;;;3.90;;
15230;SDS011;32569;51.762;8.564;2022-10-17T13:33:01;4.93;;;3.40;;
15230;SDS011;32569;51.762;8.564;2022-10-17T13:35:30;4.93;;;3.83;;
15230;SDS011;32569;51.762;8.564;2022-10-17T13:37:59;6.93;;;4.13;;
15230;SDS011;32569;51.762;8.564;2022-10-17T13:40:31;5.67;;;4.57;;
15230;SDS011;32569;51.762;8.564;2022-10-17T13:43:10;7.07;;;4.20;;
15230;SDS011;32569;51.762;8.564;2022-10-17T13:45:44;4.20;;;3.73;;
15230;SDS011;32569;51.762;8.564;2022-10-17T13:48:16;6.67;;;4.17;;
15230;SDS011;32569;51.762;8.564;2022-10-17T13:50:46;5.20;;;4.03;;
15230;SDS011;32569;51.762;8.564;2022-10-17T13:53:16;7.67;;;3.67;;
15230;SDS011;32569;51.762;8.564;2022-10-17T13:55:49;4.60;;;3.80;;
15230;SDS011;32569;51.762;8.564;2022-10-17T13:58:30;5.90;;;3.90;;
15230;SDS011;32569;51.762;8.564;2022-10-17T14:01:04;4.30;;;3.90;;
15230;SDS011;32569;51.762;8.564;2022-10-17T14:03:31;5.53;;;4.03;;
15230;SDS011;32569;51.762;8.564;2022-10-17T14:05:59;4.20;;;3.80;;
15230;SDS011;32569;51.762;8.564;2022-10-17T14:08:29;4.60;;;4.20;;
15230;SDS011;32569;51.762;8.564;2022-10-17T14:10:57;5.27;;;3.73;;
15230;SDS011;32569;51.762;8.564;2022-10-17T14:13:25;5.20;;;3.87;;
15230;SDS011;32569;51.762;8.564;2022-10-17T14:15:56;5.57;;;4.03;;
15230;SDS011;32569;51.762;8.564;2022-10-17T14:18:27;7.00;;;4.10;;
15230;SDS011;32569;51.762;8.564;2022-10-17T14:20:56;5.93;;;3.80;;
15230;SDS011;32569;51.762;8.564;2022-10-17T14:23:31;5.63;;;3.53;;
15230;SDS011;32569;51.762;8.564;2022-10-17T14:26:03;7.27;;;4.27;;
15230;SDS011;32569;51.762;8.564;2022-10-17T14:28:31;5.53;;;4.13;;
15230;SDS011;32569;51.762;8.564;2022-10-17T14:31:09;4.87;;;4.23;;
15230;SDS011;32569;51.762;8.564;2022-10-17T14:33:42;4.87;;;3.60;;
15230;SDS011;32569;51.762;8.564;2022-10-17T14:36:11;5.03;;;3.70;;
15230;SDS011;32569;51.762;8.564;2022-10-17T14:38:43;6.70;;;4.13;;
15230;SDS011;32569;51.762;8.564;2022-10-17T14:41:12;4.13;;;3.73;;
15230;SDS011;32569;51.762;8.564;2022-10-17T14:43:42;7.47;;;3.90;;
15230;SDS011;32569;51.762;8.564;2022-10-17T14:46:13;5.13;;;3.70;;
15230;SDS011;32569;51.762;8.564;2022-10-17T14:48:41;5.63;;;4.03;;
15230;SDS011;32569;51.762;8.564;2022-10-17T14:51:09;6.47;;;4.37;;
15230;SDS011;32569;51.762;8.564;2022-10-17T14:53:38;5.77;;;4.13;;
15230;SDS011;32569;51.762;8.564;2022-10-17T14:56:19;10.57;;;4.50;;
15230;SDS011;32569;51.762;8.564;2022-10-17T14:58:48;5.50;;;4.20;;
15230;SDS011;32569;51.762;8.564;2022-10-17T15:01:17;6.10;;;4.07;;
15230;SDS011;32569;51.762;8.564;2022-10-17T15:03:44;8.87;;;4.60;;
15230;SDS011;32569;51.762;8.564;2022-10-17T15:06:14;6.87;;;4.23;;
15230;SDS011;32569;51.762;8.564;2022-10-17T15:08:44;5.73;;;4.00;;
15230;SDS011;32569;51.762;8.564;2022-10-17T15:11:11;7.23;;;4.40;;
15230;SDS011;32569;51.762;8.564;2022-10-17T15:13:38;5.63;;;4.80;;
15230;SDS011;32569;51.762;8.564;2022-10-17T15:16:05;6.77;;;4.27;;
15230;SDS011;32569;51.762;8.564;2022-10-17T15:18:40;6.53;;;4.67;;
15230;SDS011;32569;51.762;8.564;2022-10-17T15:21:08;5.67;;;4.67;;
15230;SDS011;32569;51.762;8.564;2022-10-17T15:23:37;5.90;;;4.57;;
15230;SDS011;32569;51.762;8.564;2022-10-17T15:26:09;6.90;;;4.80;;